sensor_id;sensor_type;location;lat;lon;timestamp;pressure;altitude;pressure_sealevel;temperature;humidity
46944;BME280;32678;43.852;25.952;2022-07-23T00:01:51;101087.47;;;28.55;38.15
46944;BME280;32678;43.852;25.952;2022-07-23T00:06:51;101100.06;;;28.47;39.62
46944;BME280;32678;43.852;25.952;2022-07-23T00:11:48;101095.56;;;28.55;39.12
46944;BME280;32678;43.852;25.952;2022-07-23T00:16:45;101093.38;;;28.76;38.11
46944;BME280;32678;43.852;25.952;2022-07-23T00:21:44;101078.06;;;29.19;37.09
46944;BME280;32678;43.852;25.952;2022-07-23T00:26:43;101093.38;;;29.52;36.63
46944;BME280;32678;43.852;25.952;2022-07-23T00:31:40;101096.44;;;29.57;36.10
46944;BME280;32678;43.852;25.952;2022-07-23T00:36:37;101080.28;;;29.65;35.10
46944;BME280;32678;43.852;25.952;2022-07-23T00:41:35;101079.94;;;29.77;34.97
46944;BME280;32678;43.852;25.952;2022-07-23T00:46:33;101079.22;;;29.66;34.60
46944;BME280;32678;43.852;25.952;2022-07-23T00:51:30;101084.06;;;28.97;35.55
46944;BME280;32678;43.852;25.952;2022-07-23T00:56:26;101080.72;;;28.51;35.59
46944;BME280;32678;43.852;25.952;2022-07-23T01:01:23;101074.28;;;28.44;34.34
46944;BME280;32678;43.852;25.952;2022-07-23T01:06:21;101071.03;;;28.15;35.00
46944;BME280;32678;43.852;25.952;2022-07-23T01:11:18;101072.28;;;28.54;34.69
46944;BME280;32678;43.852;25.952;2022-07-23T01:16:15;101067.94;;;28.53;34.24
46944;BME280;32678;43.852;25.952;2022-07-23T01:21:13;101072.25;;;28.98;34.27
46944;BME280;32678;43.852;25.952;2022-07-23T01:26:11;101069.34;;;28.91;34.33
46944;BME280;32678;43.852;25.952;2022-07-23T01:31:10;101072.13;;;29.07;34.03
46944;BME280;32678;43.852;25.952;2022-07-23T01:36:07;101068.38;;;29.42;33.28
46944;BME280;32678;43.852;25.952;2022-07-23T01:41:05;101071.81;;;29.68;32.74
46944;BME280;32678;43.852;25.952;2022-07-23T01:46:04;101074.34;;;29.62;32.45
46944;BME280;32678;43.852;25.952;2022-07-23T01:51:08;101067.09;;;29.87;32.07
46944;BME280;32678;43.852;25.952;2022-07-23T01:56:12;101074.03;;;29.73;32.30
46944;BME280;32678;43.852;25.952;2022-07-23T02:01:11;101068.47;;;29.75;33.18
46944;BME280;32678;43.852;25.952;2022-07-23T02:06:09;101072.22;;;29.90;35.27
46944;BME280;32678;43.852;25.952;2022-07-23T02:11:05;101073.16;;;29.73;36.36
46944;BME280;32678;43.852;25.952;2022-07-23T02:16:02;101071.66;;;29.78;36.88
46944;BME280;32678;43.852;25.952;2022-07-23T02:21:00;101067.66;;;28.90;31.76
46944;BME280;32678;43.852;25.952;2022-07-23T02:25:57;101051.44;;;27.60;33.86
46944;BME280;32678;43.852;25.952;2022-07-23T02:30:54;101062.44;;;26.84;35.18
46944;BME280;32678;43.852;25.952;2022-07-23T02:35:51;101064.19;;;26.66;35.37
46944;BME280;32678;43.852;25.952;2022-07-23T02:40:51;101068.44;;;26.68;34.94
46944;BME280;32678;43.852;25.952;2022-07-23T02:45:49;101076.41;;;26.51;35.16
46944;BME280;32678;43.852;25.952;2022-07-23T02:50:46;101063.72;;;26.80;34.73
46944;BME280;32678;43.852;25.952;2022-07-23T02:55:47;101069.84;;;27.64;34.54
46944;BME280;32678;43.852;25.952;2022-07-23T03:00:45;101070.75;;;28.26;34.05
46944;BME280;32678;43.852;25.952;2022-07-23T03:05:42;101045.66;;;28.08;32.05
46944;BME280;32678;43.852;25.952;2022-07-23T03:10:39;101075.53;;;27.61;33.25
46944;BME280;32678;43.852;25.952;2022-07-23T03:15:37;101088.44;;;28.11;34.23
46944;BME280;32678;43.852;25.952;2022-07-23T03:20:34;101101.97;;;28.72;35.68
46944;BME280;32678;43.852;25.952;2022-07-23T03:25:31;101105.19;;;28.75;35.87
46944;BME280;32678;43.852;25.952;2022-07-23T03:30:28;101106.06;;;28.84;36.15
46944;BME280;32678;43.852;25.952;2022-07-23T03:35:25;101111.28;;;28.77;36.22
46944;BME280;32678;43.852;25.952;2022-07-23T03:40:46;101109.13;;;29.23;35.65
46944;BME280;32678;43.852;25.952;2022-07-23T03:45:43;101119.69;;;29.42;35.10
46944;BME280;32678;43.852;25.952;2022-07-23T03:50:40;101125.41;;;29.31;35.58
46944;BME280;32678;43.852;25.952;2022-07-23T03:55:37;101107.03;;;29.09;35.86
46944;BME280;32678;43.852;25.952;2022-07-23T04:00:35;101131.06;;;29.20;36.10
46944;BME280;32678;43.852;25.952;2022-07-23T04:05:32;101135.91;;;29.42;35.85
46944;BME280;32678;43.852;25.952;2022-07-23T04:10:35;101144.19;;;29.41;36.07
46944;BME280;32678;43.852;25.952;2022-07-23T04:15:36;101147.97;;;29.22;37.03
46944;BME280;32678;43.852;25.952;2022-07-23T04:20:34;101146.84;;;29.33;36.48
46944;BME280;32678;43.852;25.952;2022-07-23T04:25:37;101129.00;;;29.40;36.05
46944;BME280;32678;43.852;25.952;2022-07-23T04:30:34;101143.84;;;29.44;36.33
46944;BME280;32678;43.852;25.952;2022-07-23T04:35:33;101142.91;;;29.61;36.03
46944;BME280;32678;43.852;25.952;2022-07-23T04:40:41;101154.44;;;29.79;35.37
46944;BME280;32678;43.852;25.952;2022-07-23T04:45:38;101153.38;;;29.64;36.16
46944;BME280;32678;43.852;25.952;2022-07-23T04:50:36;101168.81;;;29.80;35.59
46944;BME280;32678;43.852;25.952;2022-07-23T04:55:34;101163.44;;;29.96;34.80
46944;BME280;32678;43.852;25.952;2022-07-23T05:00:31;101178.41;;;30.24;34.63
46944;BME280;32678;43.852;25.952;2022-07-23T05:05:32;101179.88;;;30.10;33.10
46944;BME280;32678;43.852;25.952;2022-07-23T05:10:39;101181.56;;;30.11;33.00
46944;BME280;32678;43.852;25.952;2022-07-23T05:15:35;101190.69;;;30.02;32.92
46944;BME280;32678;43.852;25.952;2022-07-23T05:20:33;101199.19;;;29.74;33.30
46944;BME280;32678;43.852;25.952;2022-07-23T05:25:30;101198.00;;;29.34;33.84
46944;BME280;32678;43.852;25.952;2022-07-23T05:30:28;101203.50;;;28.73;35.14
46944;BME280;32678;43.852;25.952;2022-07-23T05:35:30;101203.38;;;29.08;34.44
46944;BME280;32678;43.852;25.952;2022-07-23T05:40:47;101203.41;;;29.34;34.22
46944;BME280;32678;43.852;25.952;2022-07-23T05:45:45;101210.38;;;29.79;33.45
46944;BME280;32678;43.852;25.952;2022-07-23T05:50:42;101218.38;;;29.96;32.93
46944;BME280;32678;43.852;25.952;2022-07-23T05:55:52;101199.66;;;30.11;32.16
46944;BME280;32678;43.852;25.952;2022-07-23T06:00:49;101208.34;;;30.39;32.04
46944;BME280;32678;43.852;25.952;2022-07-23T06:05:46;101212.06;;;30.46;31.61
46944;BME280;32678;43.852;25.952;2022-07-23T06:10:43;101206.84;;;30.52;31.14
46944;BME280;32678;43.852;25.952;2022-07-23T06:15:40;101208.00;;;30.50;31.31
46944;BME280;32678;43.852;25.952;2022-07-23T06:20:41;101213.28;;;30.68;31.91
46944;BME280;32678;43.852;25.952;2022-07-23T06:25:38;101217.31;;;30.72;32.42
46944;BME280;32678;43.852;25.952;2022-07-23T06:30:35;101207.16;;;30.66;34.48
46944;BME280;32678;43.852;25.952;2022-07-23T06:35:32;101226.09;;;30.90;34.47
46944;BME280;32678;43.852;25.952;2022-07-23T06:40:31;101214.94;;;31.01;33.08
46944;BME280;32678;43.852;25.952;2022-07-23T06:45:29;101210.56;;;31.08;32.36
46944;BME280;32678;43.852;25.952;2022-07-23T06:50:26;101213.59;;;30.65;32.21
46944;BME280;32678;43.852;25.952;2022-07-23T06:55:23;101215.63;;;30.71;31.60
46944;BME280;32678;43.852;25.952;2022-07-23T07:00:20;101217.97;;;31.14;30.75
46944;BME280;32678;43.852;25.952;2022-07-23T07:05:17;101228.94;;;31.37;30.73
46944;BME280;32678;43.852;25.952;2022-07-23T07:10:16;101232.84;;;31.26;30.04
46944;BME280;32678;43.852;25.952;2022-07-23T07:15:13;101221.06;;;30.79;30.42
46944;BME280;32678;43.852;25.952;2022-07-23T07:20:11;101222.72;;;31.04;29.98
46944;BME280;32678;43.852;25.952;2022-07-23T07:25:08;101221.19;;;31.10;30.36
46944;BME280;32678;43.852;25.952;2022-07-23T07:30:06;101207.59;;;31.34;30.42
46944;BME280;32678;43.852;25.952;2022-07-23T07:35:03;101214.19;;;31.39;31.36
46944;BME280;32678;43.852;25.952;2022-07-23T07:40:02;101211.56;;;31.62;30.21
46944;BME280;32678;43.852;25.952;2022-07-23T07:45:01;101203.06;;;31.73;29.89
46944;BME280;32678;43.852;25.952;2022-07-23T07:50:00;101194.53;;;31.85;30.02
46944;BME280;32678;43.852;25.952;2022-07-23T07:54:57;101191.13;;;31.82;30.69
46944;BME280;32678;43.852;25.952;2022-07-23T07:59:56;101191.69;;;31.78;30.45
46944;BME280;32678;43.852;25.952;2022-07-23T08:05:08;101197.47;;;31.67;29.81
46944;BME280;32678;43.852;25.952;2022-07-23T08:10:05;101191.00;;;31.37;29.74
46944;BME280;32678;43.852;25.952;2022-07-23T08:15:04;101181.63;;;30.76;29.56
46944;BME280;32678;43.852;25.952;2022-07-23T08:20:09;101180.25;;;30.80;30.67
46944;BME280;32678;43.852;25.952;2022-07-23T08:25:06;101182.09;;;30.96;31.37
46944;BME280;32678;43.852;25.952;2022-07-23T08:30:05;101165.69;;;31.06;32.00
46944;BME280;32678;43.852;25.952;2022-07-23T08:35:02;101162.69;;;30.68;31.36
46944;BME280;32678;43.852;25.952;2022-07-23T08:39:59;101157.22;;;31.01;31.31
46944;BME280;32678;43.852;25.952;2022-07-23T08:44:56;101167.38;;;31.54;31.08
46944;BME280;32678;43.852;25.952;2022-07-23T08:49:54;101156.16;;;31.96;30.26
46944;BME280;32678;43.852;25.952;2022-07-23T08:54:51;101149.25;;;32.16;29.18
46944;BME280;32678;43.852;25.952;2022-07-23T08:59:49;101151.72;;;32.48;29.02
46944;BME280;32678;43.852;25.952;2022-07-23T09:04:47;101146.25;;;32.71;28.65
46944;BME280;32678;43.852;25.952;2022-07-23T09:09:45;101141.81;;;32.93;28.09
46944;BME280;32678;43.852;25.952;2022-07-23T09:14:42;101146.03;;;33.25;27.86
46944;BME280;32678;43.852;25.952;2022-07-23T09:19:40;101142.94;;;33.42;29.03
46944;BME280;32678;43.852;25.952;2022-07-23T09:24:37;101126.66;;;33.64;27.83
46944;BME280;32678;43.852;25.952;2022-07-23T09:29:35;101142.28;;;33.91;27.69
46944;BME280;32678;43.852;25.952;2022-07-23T09:34:32;101141.38;;;34.05;26.78
46944;BME280;32678;43.852;25.952;2022-07-23T09:39:34;101138.06;;;34.10;26.46
46944;BME280;32678;43.852;25.952;2022-07-23T09:44:31;101132.16;;;34.21;26.17
46944;BME280;32678;43.852;25.952;2022-07-23T09:49:37;101129.28;;;34.29;25.92
46944;BME280;32678;43.852;25.952;2022-07-23T09:54:35;101122.84;;;34.36;25.87
46944;BME280;32678;43.852;25.952;2022-07-23T09:59:33;101102.84;;;34.23;24.61
46944;BME280;32678;43.852;25.952;2022-07-23T10:04:31;101105.19;;;34.54;25.02
46944;BME280;32678;43.852;25.952;2022-07-23T10:09:55;101109.13;;;34.72;24.77
46944;BME280;32678;43.852;25.952;2022-07-23T10:15:25;101100.25;;;34.64;24.28
46944;BME280;32678;43.852;25.952;2022-07-23T10:20:22;101092.28;;;34.97;24.11
46944;BME280;32678;43.852;25.952;2022-07-23T10:25:22;101092.84;;;34.86;23.98
46944;BME280;32678;43.852;25.952;2022-07-23T10:30:22;101085.72;;;34.85;24.71
46944;BME280;32678;43.852;25.952;2022-07-23T10:35:25;101083.44;;;34.88;24.37
46944;BME280;32678;43.852;25.952;2022-07-23T10:40:23;101082.97;;;35.19;23.74
46944;BME280;32678;43.852;25.952;2022-07-23T10:45:24;101069.69;;;35.50;23.54
46944;BME280;32678;43.852;25.952;2022-07-23T10:50:23;101065.56;;;35.68;23.59
46944;BME280;32678;43.852;25.952;2022-07-23T10:55:40;101055.09;;;35.71;22.77
46944;BME280;32678;43.852;25.952;2022-07-23T11:00:37;101055.09;;;35.84;23.20
46944;BME280;32678;43.852;25.952;2022-07-23T11:05:40;101047.13;;;35.96;22.52
46944;BME280;32678;43.852;25.952;2022-07-23T11:10:38;101045.63;;;35.74;21.67
46944;BME280;32678;43.852;25.952;2022-07-23T11:15:40;101034.47;;;35.62;21.74
46944;BME280;32678;43.852;25.952;2022-07-23T11:20:58;101031.59;;;35.96;22.57
46944;BME280;32678;43.852;25.952;2022-07-23T11:26:29;101028.91;;;36.16;22.13
46944;BME280;32678;43.852;25.952;2022-07-23T11:31:38;101018.38;;;36.13;21.47
46944;BME280;32678;43.852;25.952;2022-07-23T11:36:50;101020.25;;;36.13;21.86
46944;BME280;32678;43.852;25.952;2022-07-23T11:41:47;101024.25;;;36.03;21.65
46944;BME280;32678;43.852;25.952;2022-07-23T11:46:54;101017.75;;;35.85;21.38
46944;BME280;32678;43.852;25.952;2022-07-23T11:52:04;101019.03;;;36.15;21.17
46944;BME280;32678;43.852;25.952;2022-07-23T11:57:02;101022.59;;;36.16;21.23
46944;BME280;32678;43.852;25.952;2022-07-23T12:02:01;101009.78;;;36.29;21.45
46944;BME280;32678;43.852;25.952;2022-07-23T12:07:00;100990.69;;;36.16;21.23
46944;BME280;32678;43.852;25.952;2022-07-23T12:11:57;101004.66;;;36.66;20.75
46944;BME280;32678;43.852;25.952;2022-07-23T12:17:07;100998.06;;;36.93;19.93
46944;BME280;32678;43.852;25.952;2022-07-23T12:22:04;100990.53;;;36.82;20.11
46944;BME280;32678;43.852;25.952;2022-07-23T12:27:07;100989.56;;;36.50;20.66
46944;BME280;32678;43.852;25.952;2022-07-23T12:32:17;100987.03;;;36.48;21.08
46944;BME280;32678;43.852;25.952;2022-07-23T12:37:27;100978.69;;;36.04;20.82
46944;BME280;32678;43.852;25.952;2022-07-23T12:42:24;100979.72;;;36.03;21.49
46944;BME280;32678;43.852;25.952;2022-07-23T12:47:21;100974.28;;;36.03;20.84
46944;BME280;32678;43.852;25.952;2022-07-23T12:52:18;100965.47;;;35.88;21.01
46944;BME280;32678;43.852;25.952;2022-07-23T12:57:15;100968.22;;;36.14;21.38
46944;BME280;32678;43.852;25.952;2022-07-23T13:02:14;100967.97;;;35.83;21.63
46944;BME280;32678;43.852;25.952;2022-07-23T13:07:12;100952.03;;;36.06;20.89
46944;BME280;32678;43.852;25.952;2022-07-23T13:12:09;100950.56;;;35.97;21.57
46944;BME280;32678;43.852;25.952;2022-07-23T13:17:26;100947.63;;;36.05;20.84
46944;BME280;32678;43.852;25.952;2022-07-23T13:22:24;100940.69;;;36.22;21.17
46944;BME280;32678;43.852;25.952;2022-07-23T13:27:23;100942.59;;;35.76;21.45
46944;BME280;32678;43.852;25.952;2022-07-23T13:32:20;100936.28;;;35.95;21.29
46944;BME280;32678;43.852;25.952;2022-07-23T13:37:17;100937.09;;;36.22;20.97
46944;BME280;32678;43.852;25.952;2022-07-23T13:42:15;100929.94;;;36.27;20.47
46944;BME280;32678;43.852;25.952;2022-07-23T13:47:12;100932.19;;;36.63;20.27
46944;BME280;32678;43.852;25.952;2022-07-23T13:52:09;100918.63;;;36.24;19.87
46944;BME280;32678;43.852;25.952;2022-07-23T13:57:06;100922.28;;;36.56;19.18
46944;BME280;32678;43.852;25.952;2022-07-23T14:02:06;100915.00;;;36.36;20.12
46944;BME280;32678;43.852;25.952;2022-07-23T14:07:23;100916.22;;;36.60;20.60
46944;BME280;32678;43.852;25.952;2022-07-23T14:12:21;100916.38;;;36.72;20.36
46944;BME280;32678;43.852;25.952;2022-07-23T14:17:20;100918.53;;;37.01;20.03
46944;BME280;32678;43.852;25.952;2022-07-23T14:22:17;100917.88;;;37.06;20.68
46944;BME280;32678;43.852;25.952;2022-07-23T14:27:17;100917.53;;;37.58;20.35
46944;BME280;32678;43.852;25.952;2022-07-23T14:32:16;100909.16;;;37.78;19.81
46944;BME280;32678;43.852;25.952;2022-07-23T14:37:14;100908.44;;;37.64;19.15
46944;BME280;32678;43.852;25.952;2022-07-23T14:42:12;100898.53;;;37.14;19.17
46944;BME280;32678;43.852;25.952;2022-07-23T14:47:09;100899.19;;;37.03;19.19
46944;BME280;32678;43.852;25.952;2022-07-23T14:52:06;100891.47;;;36.93;19.75
46944;BME280;32678;43.852;25.952;2022-07-23T14:57:04;100892.25;;;37.00;19.55
46944;BME280;32678;43.852;25.952;2022-07-23T15:02:03;100879.41;;;37.01;19.72
46944;BME280;32678;43.852;25.952;2022-07-23T15:07:00;100888.00;;;36.73;19.82
46944;BME280;32678;43.852;25.952;2022-07-23T15:11:58;100876.50;;;36.51;19.71
46944;BME280;32678;43.852;25.952;2022-07-23T15:16:56;100878.00;;;36.92;19.70
46944;BME280;32678;43.852;25.952;2022-07-23T15:21:55;100864.91;;;37.00;19.79
46944;BME280;32678;43.852;25.952;2022-07-23T15:27:03;100864.88;;;37.07;20.06
46944;BME280;32678;43.852;25.952;2022-07-23T15:32:01;100856.53;;;36.95;19.16
46944;BME280;32678;43.852;25.952;2022-07-23T15:37:00;100854.78;;;36.76;20.58
46944;BME280;32678;43.852;25.952;2022-07-23T15:41:57;100856.97;;;36.54;20.90
46944;BME280;32678;43.852;25.952;2022-07-23T15:46:54;100856.41;;;36.39;20.80
46944;BME280;32678;43.852;25.952;2022-07-23T15:51:52;100855.28;;;36.53;20.19
46944;BME280;32678;43.852;25.952;2022-07-23T15:56:53;100848.53;;;36.56;19.90
46944;BME280;32678;43.852;25.952;2022-07-23T16:02:03;100858.63;;;36.68;19.60
46944;BME280;32678;43.852;25.952;2022-07-23T16:07:00;100847.97;;;36.85;19.99
46944;BME280;32678;43.852;25.952;2022-07-23T16:12:00;100850.59;;;36.73;20.26
46944;BME280;32678;43.852;25.952;2022-07-23T16:16:57;100848.28;;;36.70;20.24
46944;BME280;32678;43.852;25.952;2022-07-23T16:21:54;100844.47;;;36.78;19.91
46944;BME280;32678;43.852;25.952;2022-07-23T16:26:52;100835.97;;;36.93;19.52
46944;BME280;32678;43.852;25.952;2022-07-23T16:31:53;100853.06;;;36.81;20.19
46944;BME280;32678;43.852;25.952;2022-07-23T16:36:50;100862.38;;;36.74;20.30
46944;BME280;32678;43.852;25.952;2022-07-23T16:41:50;100865.69;;;36.76;20.47
46944;BME280;32678;43.852;25.952;2022-07-23T16:46:57;100872.84;;;36.77;20.13
46944;BME280;32678;43.852;25.952;2022-07-23T16:51:58;100865.50;;;36.71;20.21
46944;BME280;32678;43.852;25.952;2022-07-23T16:56:58;100860.50;;;36.68;20.37
46944;BME280;32678;43.852;25.952;2022-07-23T17:01:57;100861.72;;;36.72;20.18
46944;BME280;32678;43.852;25.952;2022-07-23T17:06:57;100857.16;;;36.59;20.31
46944;BME280;32678;43.852;25.952;2022-07-23T17:12:00;100855.50;;;36.52;20.34
46944;BME280;32678;43.852;25.952;2022-07-23T17:17:02;100850.03;;;36.52;20.42
46944;BME280;32678;43.852;25.952;2022-07-23T17:22:10;100844.19;;;36.48;20.33
46944;BME280;32678;43.852;25.952;2022-07-23T17:27:12;100847.13;;;36.46;20.41
46944;BME280;32678;43.852;25.952;2022-07-23T17:32:32;100842.94;;;36.44;20.40
46944;BME280;32678;43.852;25.952;2022-07-23T17:37:31;100846.72;;;36.43;20.47
46944;BME280;32678;43.852;25.952;2022-07-23T17:42:30;100837.28;;;36.45;20.35
46944;BME280;32678;43.852;25.952;2022-07-23T17:47:31;100839.81;;;36.40;20.38
46944;BME280;32678;43.852;25.952;2022-07-23T17:52:32;100842.59;;;36.27;20.84
46944;BME280;32678;43.852;25.952;2022-07-23T17:57:31;100841.97;;;36.12;21.04
46944;BME280;32678;43.852;25.952;2022-07-23T18:02:33;100844.75;;;35.99;21.17
46944;BME280;32678;43.852;25.952;2022-07-23T18:07:30;100846.69;;;35.79;21.37
46944;BME280;32678;43.852;25.952;2022-07-23T18:12:27;100842.91;;;35.60;21.47
46944;BME280;32678;43.852;25.952;2022-07-23T18:17:26;100844.00;;;35.72;21.08
46944;BME280;32678;43.852;25.952;2022-07-23T18:22:26;100843.97;;;35.59;21.62
46944;BME280;32678;43.852;25.952;2022-07-23T18:27:23;100851.94;;;35.54;21.39
46944;BME280;32678;43.852;25.952;2022-07-23T18:32:20;100841.88;;;35.35;21.65
46944;BME280;32678;43.852;25.952;2022-07-23T18:37:18;100859.06;;;35.35;21.91
46944;BME280;32678;43.852;25.952;2022-07-23T18:42:34;100854.84;;;35.13;21.85
46944;BME280;32678;43.852;25.952;2022-07-23T18:47:31;100853.41;;;35.17;21.86
46944;BME280;32678;43.852;25.952;2022-07-23T18:52:30;100858.81;;;35.10;21.70
46944;BME280;32678;43.852;25.952;2022-07-23T18:57:27;100867.06;;;35.24;21.48
46944;BME280;32678;43.852;25.952;2022-07-23T19:02:27;100872.63;;;34.89;21.54
46944;BME280;32678;43.852;25.952;2022-07-23T19:07:25;100870.75;;;34.96;21.60
46944;BME280;32678;43.852;25.952;2022-07-23T19:12:26;100863.91;;;34.59;21.85
46944;BME280;32678;43.852;25.952;2022-07-23T19:17:23;100886.94;;;33.88;24.28
46944;BME280;32678;43.852;25.952;2022-07-23T19:22:27;100886.09;;;33.60;25.67
46944;BME280;32678;43.852;25.952;2022-07-23T19:27:26;100890.03;;;32.93;27.52
46944;BME280;32678;43.852;25.952;2022-07-23T19:32:23;100885.03;;;32.61;28.31
46944;BME280;32678;43.852;25.952;2022-07-23T19:37:39;100882.72;;;32.43;29.14
46944;BME280;32678;43.852;25.952;2022-07-23T19:42:42;100902.47;;;32.52;29.04
46944;BME280;32678;43.852;25.952;2022-07-23T19:47:43;100891.63;;;32.37;29.70
46944;BME280;32678;43.852;25.952;2022-07-23T19:52:54;100892.25;;;32.10;30.18
46944;BME280;32678;43.852;25.952;2022-07-23T19:58:00;100896.69;;;31.59;31.14
46944;BME280;32678;43.852;25.952;2022-07-23T20:02:59;100884.38;;;31.48;31.79
46944;BME280;32678;43.852;25.952;2022-07-23T20:08:00;100887.34;;;31.61;31.56
46944;BME280;32678;43.852;25.952;2022-07-23T20:12:57;100894.44;;;31.62;31.63
46944;BME280;32678;43.852;25.952;2022-07-23T20:17:56;100885.94;;;31.42;32.28
46944;BME280;32678;43.852;25.952;2022-07-23T20:22:53;100897.63;;;31.43;32.18
46944;BME280;32678;43.852;25.952;2022-07-23T20:27:53;100895.84;;;31.13;32.76
46944;BME280;32678;43.852;25.952;2022-07-23T20:32:53;100894.81;;;30.83;33.32
46944;BME280;32678;43.852;25.952;2022-07-23T20:37:56;100885.16;;;30.58;33.50
46944;BME280;32678;43.852;25.952;2022-07-23T20:42:54;100880.81;;;30.48;33.87
46944;BME280;32678;43.852;25.952;2022-07-23T20:47:51;100882.81;;;30.46;33.87
46944;BME280;32678;43.852;25.952;2022-07-23T20:52:49;100881.81;;;30.39;33.89
46944;BME280;32678;43.852;25.952;2022-07-23T20:57:46;100888.22;;;30.46;33.75
46944;BME280;32678;43.852;25.952;2022-07-23T21:02:48;100888.56;;;30.35;33.92
46944;BME280;32678;43.852;25.952;2022-07-23T21:07:47;100895.84;;;30.43;34.01
46944;BME280;32678;43.852;25.952;2022-07-23T21:12:44;100893.38;;;30.17;34.29
46944;BME280;32678;43.852;25.952;2022-07-23T21:17:42;100890.53;;;30.19;34.32
46944;BME280;32678;43.852;25.952;2022-07-23T21:22:42;100878.47;;;30.29;33.86
46944;BME280;32678;43.852;25.952;2022-07-23T21:27:40;100880.88;;;30.24;33.98
46944;BME280;32678;43.852;25.952;2022-07-23T21:32:38;100876.16;;;30.18;33.98
46944;BME280;32678;43.852;25.952;2022-07-23T21:37:35;100882.38;;;30.27;33.94
46944;BME280;32678;43.852;25.952;2022-07-23T21:42:33;100875.22;;;29.95;34.35
46944;BME280;32678;43.852;25.952;2022-07-23T21:47:30;100876.38;;;29.84;34.39
46944;BME280;32678;43.852;25.952;2022-07-23T21:52:29;100876.91;;;29.80;34.42
46944;BME280;32678;43.852;25.952;2022-07-23T21:57:31;100873.69;;;29.84;34.19
46944;BME280;32678;43.852;25.952;2022-07-23T22:02:30;100877.72;;;29.96;34.04
46944;BME280;32678;43.852;25.952;2022-07-23T22:07:29;100883.00;;;29.74;34.59
46944;BME280;32678;43.852;25.952;2022-07-23T22:12:26;100878.25;;;29.67;34.84
46944;BME280;32678;43.852;25.952;2022-07-23T22:17:29;100873.03;;;29.58;34.80
46944;BME280;32678;43.852;25.952;2022-07-23T22:22:26;100878.47;;;29.50;35.02
46944;BME280;32678;43.852;25.952;2022-07-23T22:27:24;100879.25;;;29.66;34.53
46944;BME280;32678;43.852;25.952;2022-07-23T22:32:20;100884.19;;;29.63;34.49
46944;BME280;32678;43.852;25.952;2022-07-23T22:37:20;100880.28;;;29.74;34.10
46944;BME280;32678;43.852;25.952;2022-07-23T22:42:18;100883.66;;;29.67;34.21
46944;BME280;32678;43.852;25.952;2022-07-23T22:47:15;100884.66;;;29.66;34.46
46944;BME280;32678;43.852;25.952;2022-07-23T22:52:12;100888.94;;;29.61;34.19
46944;BME280;32678;43.852;25.952;2022-07-23T22:57:12;100894.81;;;29.81;34.01
46944;BME280;32678;43.852;25.952;2022-07-23T23:02:09;100893.78;;;29.98;33.89
46944;BME280;32678;43.852;25.952;2022-07-23T23:07:06;100896.84;;;30.50;34.81
46944;BME280;32678;43.852;25.952;2022-07-23T23:12:04;100895.66;;;30.83;35.06
46944;BME280;32678;43.852;25.952;2022-07-23T23:17:00;100903.06;;;31.20;34.45
46944;BME280;32678;43.852;25.952;2022-07-23T23:21:58;100900.47;;;31.27;32.44
46944;BME280;32678;43.852;25.952;2022-07-23T23:26:55;100892.81;;;30.38;33.44
46944;BME280;32678;43.852;25.952;2022-07-23T23:31:52;100918.78;;;29.92;33.83
46944;BME280;32678;43.852;25.952;2022-07-23T23:36:50;100919.97;;;29.81;34.30
46944;BME280;32678;43.852;25.952;2022-07-23T23:41:47;100914.00;;;30.18;33.56
46944;BME280;32678;43.852;25.952;2022-07-23T23:46:44;100919.25;;;30.11;33.42
46944;BME280;32678;43.852;25.952;2022-07-23T23:51:41;100911.91;;;30.52;34.47
46944;BME280;32678;43.852;25.952;2022-07-23T23:56:39;100918.69;;;30.79;34.69
